sensor_id;sensor_type;location;lat;lon;timestamp;pressure;altitude;pressure_sealevel;temperature;humidity
34454;BME280;60061;52.080;5.312;2022-12-26T00:00:54;100905.0;;;10.45;100.0
34454;BME280;60061;52.080;5.312;2022-12-26T00:02:33;100900.0;;;10.42;100.0
34454;BME280;60061;52.080;5.312;2022-12-26T00:05:46;100903.0;;;10.42;100.0
34454;BME280;60061;52.080;5.312;2022-12-26T00:07:22;100905.0;;;10.5;100.0
34454;BME280;60061;52.080;5.312;2022-12-26T00:09:00;100905.0;;;10.52;100.0
34454;BME280;60061;52.080;5.312;2022-12-26T00:12:14;100906.0;;;10.59;100.0
34454;BME280;60061;52.080;5.312;2022-12-26T00:13:53;100908.0;;;10.52;100.0
34454;BME280;60061;52.080;5.312;2022-12-26T00:15:30;100913.0;;;10.47;100.0
34454;BME280;60061;52.080;5.312;2022-12-26T00:17:06;100910.0;;;10.37;100.0
34454;BME280;60061;52.080;5.312;2022-12-26T00:20:19;100909.0;;;10.39;100.0
34454;BME280;60061;52.080;5.312;2022-12-26T00:21:55;100909.0;;;10.27;100.0
34454;BME280;60061;52.080;5.312;2022-12-26T00:23:31;100918.0;;;10.27;100.0
34454;BME280;60061;52.080;5.312;2022-12-26T00:26:46;100914.0;;;10.23;100.0
34454;BME280;60061;52.080;5.312;2022-12-26T00:28:22;100915.0;;;10.4;100.0
34454;BME280;60061;52.080;5.312;2022-12-26T00:29:58;100927.0;;;10.31;100.0
34454;BME280;60061;52.080;5.312;2022-12-26T00:33:10;100931.0;;;10.18;100.0
34454;BME280;60061;52.080;5.312;2022-12-26T00:34:47;100934.0;;;10.42;100.0
34454;BME280;60061;52.080;5.312;2022-12-26T00:36:24;100943.0;;;10.45;100.0
34454;BME280;60061;52.080;5.312;2022-12-26T00:39:38;100938.0;;;10.22;100.0
34454;BME280;60061;52.080;5.312;2022-12-26T00:41:15;100937.0;;;10.07;100.0
34454;BME280;60061;52.080;5.312;2022-12-26T00:42:52;100942.0;;;10.17;100.0
34454;BME280;60061;52.080;5.312;2022-12-26T00:44:29;100941.0;;;10.03;100.0
34454;BME280;60061;52.080;5.312;2022-12-26T00:47:42;100937.0;;;10.16;100.0
34454;BME280;60061;52.080;5.312;2022-12-26T00:49:18;100942.0;;;10.23;100.0
34454;BME280;60061;52.080;5.312;2022-12-26T00:50:55;100945.0;;;10.3;100.0
34454;BME280;60061;52.080;5.312;2022-12-26T00:54:08;100939.0;;;10.16;100.0
34454;BME280;60061;52.080;5.312;2022-12-26T00:55:44;100940.0;;;10.17;100.0
34454;BME280;60061;52.080;5.312;2022-12-26T00:57:20;100939.0;;;10.27;100.0
34454;BME280;60061;52.080;5.312;2022-12-26T00:58:56;100943.0;;;10.35;100.0
34454;BME280;60061;52.080;5.312;2022-12-26T01:02:10;100948.0;;;10.25;100.0
34454;BME280;60061;52.080;5.312;2022-12-26T01:03:49;100948.0;;;10.29;100.0
34454;BME280;60061;52.080;5.312;2022-12-26T01:05:27;100953.0;;;10.15;100.0
34454;BME280;60061;52.080;5.312;2022-12-26T01:08:40;100946.0;;;10.32;100.0
34454;BME280;60061;52.080;5.312;2022-12-26T01:10:17;100951.0;;;10.32;100.0
34454;BME280;60061;52.080;5.312;2022-12-26T01:11:54;100946.0;;;10.31;100.0
34454;BME280;60061;52.080;5.312;2022-12-26T01:15:09;100939.0;;;10.09;100.0
34454;BME280;60061;52.080;5.312;2022-12-26T01:16:45;100936.0;;;10.19;100.0
34454;BME280;60061;52.080;5.312;2022-12-26T01:19:58;100946.0;;;10.34;100.0
34454;BME280;60061;52.080;5.312;2022-12-26T01:23:12;100953.0;;;10.16;100.0
34454;BME280;60061;52.080;5.312;2022-12-26T01:24:52;100951.0;;;10.27;100.0
34454;BME280;60061;52.080;5.312;2022-12-26T01:26:28;100943.0;;;10.36;100.0
34454;BME280;60061;52.080;5.312;2022-12-26T01:29:40;100942.0;;;10.33;100.0
34454;BME280;60061;52.080;5.312;2022-12-26T01:31:17;100941.0;;;10.27;100.0
34454;BME280;60061;52.080;5.312;2022-12-26T01:32:53;100937.0;;;10.36;100.0
34454;BME280;60061;52.080;5.312;2022-12-26T01:34:30;100939.0;;;10.37;100.0
34454;BME280;60061;52.080;5.312;2022-12-26T01:37:43;100937.0;;;10.27;100.0
34454;BME280;60061;52.080;5.312;2022-12-26T01:39:20;100940.0;;;10.34;100.0
34454;BME280;60061;52.080;5.312;2022-12-26T01:40:57;100951.0;;;10.37;100.0
34454;BME280;60061;52.080;5.312;2022-12-26T01:45:32;100942.0;;;10.25;100.0
34454;BME280;60061;52.080;5.312;2022-12-26T01:47:51;100937.0;;;10.38;100.0
34454;BME280;60061;52.080;5.312;2022-12-26T01:49:33;100941.0;;;10.37;100.0
34454;BME280;60061;52.080;5.312;2022-12-26T01:51:12;100949.0;;;10.39;100.0
34454;BME280;60061;52.080;5.312;2022-12-26T01:54:32;100955.0;;;10.26;100.0
34454;BME280;60061;52.080;5.312;2022-12-26T01:56:12;100956.0;;;10.23;100.0
34454;BME280;60061;52.080;5.312;2022-12-26T01:57:54;100955.0;;;10.26;100.0
34454;BME280;60061;52.080;5.312;2022-12-26T01:59:34;100955.0;;;10.16;100.0
34454;BME280;60061;52.080;5.312;2022-12-26T02:02:50;100953.0;;;10.29;100.0
34454;BME280;60061;52.080;5.312;2022-12-26T02:04:40;100950.0;;;10.31;100.0
34454;BME280;60061;52.080;5.312;2022-12-26T02:06:20;100947.0;;;10.26;100.0
34454;BME280;60061;52.080;5.312;2022-12-26T02:07:57;100953.0;;;10.29;100.0
34454;BME280;60061;52.080;5.312;2022-12-26T02:11:13;100953.0;;;10.37;100.0
34454;BME280;60061;52.080;5.312;2022-12-26T02:12:52;100947.0;;;10.29;100.0
34454;BME280;60061;52.080;5.312;2022-12-26T02:14:30;100944.0;;;10.07;100.0
34454;BME280;60061;52.080;5.312;2022-12-26T02:17:47;100937.0;;;10.24;100.0
34454;BME280;60061;52.080;5.312;2022-12-26T02:19:32;100932.0;;;10.33;100.0
34454;BME280;60061;52.080;5.312;2022-12-26T02:21:41;100940.0;;;10.25;100.0
34454;BME280;60061;52.080;5.312;2022-12-26T02:23:50;100942.0;;;10.35;100.0
34454;BME280;60061;52.080;5.312;2022-12-26T02:26:53;100939.0;;;10.16;100.0
34454;BME280;60061;52.080;5.312;2022-12-26T02:32:43;100940.0;;;10.34;100.0
34454;BME280;60061;52.080;5.312;2022-12-26T02:35:32;100945.0;;;10.36;100.0
34454;BME280;60061;52.080;5.312;2022-12-26T02:37:29;100942.0;;;10.33;100.0
34454;BME280;60061;52.080;5.312;2022-12-26T02:41:17;100943.0;;;10.35;100.0
34454;BME280;60061;52.080;5.312;2022-12-26T02:43:04;100941.0;;;10.28;100.0
34454;BME280;60061;52.080;5.312;2022-12-26T02:44:51;100939.0;;;10.18;100.0
34454;BME280;60061;52.080;5.312;2022-12-26T02:46:35;100942.0;;;10.32;100.0
34454;BME280;60061;52.080;5.312;2022-12-26T02:48:23;100941.0;;;10.27;100.0
34454;BME280;60061;52.080;5.312;2022-12-26T02:50:13;100939.0;;;10.19;100.0
34454;BME280;60061;52.080;5.312;2022-12-26T02:52:00;100932.0;;;10.3;100.0
34454;BME280;60061;52.080;5.312;2022-12-26T02:55:30;100935.0;;;10.38;100.0
34454;BME280;60061;52.080;5.312;2022-12-26T02:57:15;100940.0;;;10.35;100.0
34454;BME280;60061;52.080;5.312;2022-12-26T02:58:57;100944.0;;;10.26;100.0
34454;BME280;60061;52.080;5.312;2022-12-26T03:00:38;100937.0;;;10.26;100.0
34454;BME280;60061;52.080;5.312;2022-12-26T03:05:50;100931.0;;;10.28;100.0
34454;BME280;60061;52.080;5.312;2022-12-26T03:07:32;100931.0;;;10.42;100.0
34454;BME280;60061;52.080;5.312;2022-12-26T03:09:15;100930.0;;;10.22;100.0
34454;BME280;60061;52.080;5.312;2022-12-26T03:10:54;100926.0;;;10.05;100.0
34454;BME280;60061;52.080;5.312;2022-12-26T03:14:25;100926.0;;;9.82;100.0
34454;BME280;60061;52.080;5.312;2022-12-26T03:16:08;100930.0;;;10.01;100.0
34454;BME280;60061;52.080;5.312;2022-12-26T03:17:48;100933.0;;;10.0;100.0
34454;BME280;60061;52.080;5.312;2022-12-26T03:19:26;100933.0;;;9.97;100.0
34454;BME280;60061;52.080;5.312;2022-12-26T03:22:48;100947.0;;;9.96;100.0
34454;BME280;60061;52.080;5.312;2022-12-26T03:24:27;100947.0;;;9.93;100.0
34454;BME280;60061;52.080;5.312;2022-12-26T03:26:07;100953.0;;;9.88;100.0
34454;BME280;60061;52.080;5.312;2022-12-26T03:29:23;100947.0;;;9.85;100.0
34454;BME280;60061;52.080;5.312;2022-12-26T03:31:01;100953.0;;;9.94;100.0
34454;BME280;60061;52.080;5.312;2022-12-26T03:32:41;100957.0;;;9.67;100.0
34454;BME280;60061;52.080;5.312;2022-12-26T03:34:18;100961.0;;;9.75;100.0
34454;BME280;60061;52.080;5.312;2022-12-26T03:35:55;100951.0;;;9.93;100.0
34454;BME280;60061;52.080;5.312;2022-12-26T03:39:30;100956.0;;;9.89;100.0
34454;BME280;60061;52.080;5.312;2022-12-26T03:41:17;100955.0;;;9.93;100.0
34454;BME280;60061;52.080;5.312;2022-12-26T03:43:09;100953.0;;;9.92;100.0
34454;BME280;60061;52.080;5.312;2022-12-26T03:44:54;100951.0;;;9.93;100.0
34454;BME280;60061;52.080;5.312;2022-12-26T03:46:52;100948.0;;;9.94;100.0
34454;BME280;60061;52.080;5.312;2022-12-26T03:48:31;100955.0;;;10.06;100.0
34454;BME280;60061;52.080;5.312;2022-12-26T03:52:06;100956.0;;;9.98;100.0
34454;BME280;60061;52.080;5.312;2022-12-26T03:53:49;100955.0;;;9.89;100.0
34454;BME280;60061;52.080;5.312;2022-12-26T03:55:35;100946.0;;;9.84;100.0
34454;BME280;60061;52.080;5.312;2022-12-26T03:57:19;100949.0;;;9.89;100.0
34454;BME280;60061;52.080;5.312;2022-12-26T03:59:03;100951.0;;;9.96;100.0
34454;BME280;60061;52.080;5.312;2022-12-26T04:02:24;100950.0;;;9.91;100.0
34454;BME280;60061;52.080;5.312;2022-12-26T04:05:46;100947.0;;;9.75;100.0
34454;BME280;60061;52.080;5.312;2022-12-26T04:07:27;100946.0;;;9.75;100.0
34454;BME280;60061;52.080;5.312;2022-12-26T04:10:56;100946.0;;;9.81;100.0
34454;BME280;60061;52.080;5.312;2022-12-26T04:12:34;100938.0;;;9.77;100.0
34454;BME280;60061;52.080;5.312;2022-12-26T04:14:20;100934.0;;;9.98;100.0
34454;BME280;60061;52.080;5.312;2022-12-26T04:16:15;100931.0;;;9.96;100.0
34454;BME280;60061;52.080;5.312;2022-12-26T04:17:56;100937.0;;;9.93;100.0
34454;BME280;60061;52.080;5.312;2022-12-26T04:21:54;100953.0;;;10.01;100.0
34454;BME280;60061;52.080;5.312;2022-12-26T04:25:20;100952.0;;;10.17;100.0
34454;BME280;60061;52.080;5.312;2022-12-26T04:27:01;100951.0;;;10.01;100.0
34454;BME280;60061;52.080;5.312;2022-12-26T04:28:38;100955.0;;;9.99;100.0
34454;BME280;60061;52.080;5.312;2022-12-26T04:30:15;100959.0;;;10.14;100.0
34454;BME280;60061;52.080;5.312;2022-12-26T04:33:41;100960.0;;;9.72;100.0
34454;BME280;60061;52.080;5.312;2022-12-26T04:35:29;100958.0;;;9.9;100.0
34454;BME280;60061;52.080;5.312;2022-12-26T04:37:13;100961.0;;;9.97;100.0
34454;BME280;60061;52.080;5.312;2022-12-26T04:38:59;100971.0;;;9.84;100.0
34454;BME280;60061;52.080;5.312;2022-12-26T04:40:44;100960.0;;;9.96;100.0
34454;BME280;60061;52.080;5.312;2022-12-26T04:44:03;100969.0;;;9.89;100.0
34454;BME280;60061;52.080;5.312;2022-12-26T04:45:41;100966.0;;;9.9;100.0
34454;BME280;60061;52.080;5.312;2022-12-26T04:47:18;100958.0;;;9.93;100.0
34454;BME280;60061;52.080;5.312;2022-12-26T04:50:32;100955.0;;;9.89;100.0
34454;BME280;60061;52.080;5.312;2022-12-26T04:52:09;100951.0;;;9.94;100.0
34454;BME280;60061;52.080;5.312;2022-12-26T04:53:48;100949.0;;;9.8;100.0
34454;BME280;60061;52.080;5.312;2022-12-26T04:55:25;100941.0;;;9.78;100.0
34454;BME280;60061;52.080;5.312;2022-12-26T04:58:38;100944.0;;;9.81;100.0
34454;BME280;60061;52.080;5.312;2022-12-26T05:00:15;100940.0;;;9.74;100.0
34454;BME280;60061;52.080;5.312;2022-12-26T05:01:52;100941.0;;;9.83;100.0
34454;BME280;60061;52.080;5.312;2022-12-26T05:05:05;100938.0;;;9.69;100.0
34454;BME280;60061;52.080;5.312;2022-12-26T05:06:42;100942.0;;;9.67;100.0
34454;BME280;60061;52.080;5.312;2022-12-26T05:08:22;100943.0;;;9.43;100.0
34454;BME280;60061;52.080;5.312;2022-12-26T05:10:03;100943.0;;;9.64;100.0
34454;BME280;60061;52.080;5.312;2022-12-26T05:13:17;100933.0;;;9.55;100.0
34454;BME280;60061;52.080;5.312;2022-12-26T05:14:53;100932.0;;;9.6;100.0
34454;BME280;60061;52.080;5.312;2022-12-26T05:16:30;100930.0;;;9.73;100.0
34454;BME280;60061;52.080;5.312;2022-12-26T05:19:43;100932.0;;;9.65;100.0
34454;BME280;60061;52.080;5.312;2022-12-26T05:21:21;100933.0;;;9.6;100.0
34454;BME280;60061;52.080;5.312;2022-12-26T05:22:59;100937.0;;;9.55;100.0
34454;BME280;60061;52.080;5.312;2022-12-26T05:26:19;100936.0;;;9.58;100.0
34454;BME280;60061;52.080;5.312;2022-12-26T05:27:56;100939.0;;;9.73;100.0
34454;BME280;60061;52.080;5.312;2022-12-26T05:29:32;100932.0;;;9.78;100.0
34454;BME280;60061;52.080;5.312;2022-12-26T05:32:47;100940.0;;;9.47;100.0
34454;BME280;60061;52.080;5.312;2022-12-26T05:34:23;100941.0;;;9.49;100.0
34454;BME280;60061;52.080;5.312;2022-12-26T05:35:59;100946.0;;;9.63;100.0
34454;BME280;60061;52.080;5.312;2022-12-26T05:37:35;100947.0;;;9.74;100.0
34454;BME280;60061;52.080;5.312;2022-12-26T05:40:49;100951.0;;;9.47;100.0
34454;BME280;60061;52.080;5.312;2022-12-26T05:42:26;100948.0;;;9.61;100.0
34454;BME280;60061;52.080;5.312;2022-12-26T05:44:03;100953.0;;;9.55;100.0
34454;BME280;60061;52.080;5.312;2022-12-26T05:47:15;100957.0;;;9.39;100.0
34454;BME280;60061;52.080;5.312;2022-12-26T05:48:52;100948.0;;;9.31;100.0
34454;BME280;60061;52.080;5.312;2022-12-26T05:53:40;100955.0;;;9.47;100.0
34454;BME280;60061;52.080;5.312;2022-12-26T05:55:16;100956.0;;;9.44;100.0
34454;BME280;60061;52.080;5.312;2022-12-26T05:56:53;100953.0;;;9.52;100.0
34454;BME280;60061;52.080;5.312;2022-12-26T05:58:30;100956.0;;;9.48;100.0
34454;BME280;60061;52.080;5.312;2022-12-26T06:01:44;100949.0;;;9.41;100.0
34454;BME280;60061;52.080;5.312;2022-12-26T06:03:20;100951.0;;;9.44;100.0
34454;BME280;60061;52.080;5.312;2022-12-26T06:04:56;100936.0;;;9.48;100.0
34454;BME280;60061;52.080;5.312;2022-12-26T06:08:09;100932.0;;;9.35;100.0
34454;BME280;60061;52.080;5.312;2022-12-26T06:09:45;100925.0;;;9.42;100.0
34454;BME280;60061;52.080;5.312;2022-12-26T06:11:22;100934.0;;;9.31;100.0
34454;BME280;60061;52.080;5.312;2022-12-26T06:14:37;100933.0;;;9.33;100.0
34454;BME280;60061;52.080;5.312;2022-12-26T06:16:14;100937.0;;;9.14;100.0
34454;BME280;60061;52.080;5.312;2022-12-26T06:17:53;100933.0;;;9.19;100.0
34454;BME280;60061;52.080;5.312;2022-12-26T06:19:30;100936.0;;;9.39;100.0
34454;BME280;60061;52.080;5.312;2022-12-26T06:22:45;100944.0;;;9.31;100.0
34454;BME280;60061;52.080;5.312;2022-12-26T06:24:21;100943.0;;;9.36;100.0
34454;BME280;60061;52.080;5.312;2022-12-26T06:25:58;100942.0;;;9.18;100.0
34454;BME280;60061;52.080;5.312;2022-12-26T06:29:11;100944.0;;;9.33;100.0
34454;BME280;60061;52.080;5.312;2022-12-26T06:30:48;100943.0;;;9.4;100.0
34454;BME280;60061;52.080;5.312;2022-12-26T06:32:25;100941.0;;;9.51;100.0
34454;BME280;60061;52.080;5.312;2022-12-26T06:35:37;100943.0;;;9.42;100.0
34454;BME280;60061;52.080;5.312;2022-12-26T06:37:14;100945.0;;;9.27;100.0
34454;BME280;60061;52.080;5.312;2022-12-26T06:38:51;100944.0;;;9.27;100.0
34454;BME280;60061;52.080;5.312;2022-12-26T06:40:28;100944.0;;;9.27;100.0
34454;BME280;60061;52.080;5.312;2022-12-26T06:43:41;100947.0;;;9.36;100.0
34454;BME280;60061;52.080;5.312;2022-12-26T06:45:18;100948.0;;;9.32;100.0
34454;BME280;60061;52.080;5.312;2022-12-26T06:46:54;100948.0;;;9.32;100.0
34454;BME280;60061;52.080;5.312;2022-12-26T06:50:08;100951.0;;;9.43;100.0
34454;BME280;60061;52.080;5.312;2022-12-26T06:51:46;100955.0;;;9.4;100.0
34454;BME280;60061;52.080;5.312;2022-12-26T06:53:23;100950.0;;;9.23;100.0
34454;BME280;60061;52.080;5.312;2022-12-26T06:55:00;100953.0;;;9.43;100.0
34454;BME280;60061;52.080;5.312;2022-12-26T06:58:12;100960.0;;;9.11;100.0
34454;BME280;60061;52.080;5.312;2022-12-26T06:59:48;100953.0;;;9.23;100.0
34454;BME280;60061;52.080;5.312;2022-12-26T07:01:25;100949.0;;;9.32;100.0
34454;BME280;60061;52.080;5.312;2022-12-26T07:04:39;100953.0;;;9.43;100.0
34454;BME280;60061;52.080;5.312;2022-12-26T07:06:20;100947.0;;;9.48;100.0
34454;BME280;60061;52.080;5.312;2022-12-26T07:07:59;100955.0;;;9.38;100.0
34454;BME280;60061;52.080;5.312;2022-12-26T07:11:13;100951.0;;;9.39;100.0
34454;BME280;60061;52.080;5.312;2022-12-26T07:12:49;100958.0;;;9.55;100.0
34454;BME280;60061;52.080;5.312;2022-12-26T07:14:25;100955.0;;;9.39;100.0
34454;BME280;60061;52.080;5.312;2022-12-26T07:16:01;100956.0;;;9.31;100.0
34454;BME280;60061;52.080;5.312;2022-12-26T07:19:14;100957.0;;;9.27;100.0
34454;BME280;60061;52.080;5.312;2022-12-26T07:20:51;100950.0;;;9.44;100.0
34454;BME280;60061;52.080;5.312;2022-12-26T07:22:27;100951.0;;;9.26;100.0
34454;BME280;60061;52.080;5.312;2022-12-26T07:25:41;100949.0;;;9.22;100.0
34454;BME280;60061;52.080;5.312;2022-12-26T07:27:17;100955.0;;;9.35;100.0
34454;BME280;60061;52.080;5.312;2022-12-26T07:28:54;100963.0;;;9.06;100.0
34454;BME280;60061;52.080;5.312;2022-12-26T07:32:06;100961.0;;;9.15;100.0
34454;BME280;60061;52.080;5.312;2022-12-26T07:33:45;100950.0;;;9.31;100.0
34454;BME280;60061;52.080;5.312;2022-12-26T07:35:22;100949.0;;;9.18;100.0
34454;BME280;60061;52.080;5.312;2022-12-26T07:36:58;100946.0;;;9.21;100.0
34454;BME280;60061;52.080;5.312;2022-12-26T07:40:11;100940.0;;;9.21;100.0
34454;BME280;60061;52.080;5.312;2022-12-26T07:41:47;100944.0;;;9.17;100.0
34454;BME280;60061;52.080;5.312;2022-12-26T07:46:37;100952.0;;;9.13;100.0
34454;BME280;60061;52.080;5.312;2022-12-26T07:48:13;100953.0;;;9.24;100.0
34454;BME280;60061;52.080;5.312;2022-12-26T07:49:49;100957.0;;;9.24;100.0
34454;BME280;60061;52.080;5.312;2022-12-26T07:53:03;100955.0;;;9.38;100.0
34454;BME280;60061;52.080;5.312;2022-12-26T07:54:39;100955.0;;;9.27;100.0
34454;BME280;60061;52.080;5.312;2022-12-26T07:56:15;100961.0;;;9.33;100.0
34454;BME280;60061;52.080;5.312;2022-12-26T07:57:51;100967.0;;;9.25;100.0
34454;BME280;60061;52.080;5.312;2022-12-26T08:01:05;100961.0;;;9.35;100.0
34454;BME280;60061;52.080;5.312;2022-12-26T08:02:42;100956.0;;;9.24;100.0
34454;BME280;60061;52.080;5.312;2022-12-26T08:04:18;100958.0;;;9.19;100.0
34454;BME280;60061;52.080;5.312;2022-12-26T08:07:31;100958.0;;;9.39;100.0
34454;BME280;60061;52.080;5.312;2022-12-26T08:09:11;100962.0;;;9.32;100.0
34454;BME280;60061;52.080;5.312;2022-12-26T08:10:57;100956.0;;;9.27;100.0
34454;BME280;60061;52.080;5.312;2022-12-26T08:12:33;100951.0;;;9.39;100.0
34454;BME280;60061;52.080;5.312;2022-12-26T08:15:47;100955.0;;;9.36;100.0
34454;BME280;60061;52.080;5.312;2022-12-26T08:17:24;100959.0;;;9.33;100.0
34454;BME280;60061;52.080;5.312;2022-12-26T08:19:00;100968.0;;;9.5;100.0
34454;BME280;60061;52.080;5.312;2022-12-26T08:22:13;100970.0;;;9.58;100.0
34454;BME280;60061;52.080;5.312;2022-12-26T08:23:49;100971.0;;;9.51;100.0
34454;BME280;60061;52.080;5.312;2022-12-26T08:25:25;100972.0;;;9.64;100.0
34454;BME280;60061;52.080;5.312;2022-12-26T08:27:02;100980.0;;;9.64;100.0
34454;BME280;60061;52.080;5.312;2022-12-26T08:30:16;100977.0;;;9.49;100.0
34454;BME280;60061;52.080;5.312;2022-12-26T08:31:52;100985.0;;;9.65;100.0
34454;BME280;60061;52.080;5.312;2022-12-26T08:33:28;100993.0;;;9.74;100.0
34454;BME280;60061;52.080;5.312;2022-12-26T08:36:42;100982.0;;;9.71;100.0
34454;BME280;60061;52.080;5.312;2022-12-26T08:38:18;100987.0;;;9.66;100.0
34454;BME280;60061;52.080;5.312;2022-12-26T08:39:54;100974.0;;;9.72;100.0
34454;BME280;60061;52.080;5.312;2022-12-26T08:43:07;100985.0;;;9.69;100.0
34454;BME280;60061;52.080;5.312;2022-12-26T08:44:43;100985.0;;;9.69;100.0
34454;BME280;60061;52.080;5.312;2022-12-26T08:46:20;100983.0;;;9.78;100.0
34454;BME280;60061;52.080;5.312;2022-12-26T08:47:57;100998.0;;;9.73;100.0
34454;BME280;60061;52.080;5.312;2022-12-26T08:51:12;100984.0;;;9.83;100.0
34454;BME280;60061;52.080;5.312;2022-12-26T08:52:49;100992.0;;;9.73;100.0
34454;BME280;60061;52.080;5.312;2022-12-26T08:54:25;101008.0;;;9.75;100.0
34454;BME280;60061;52.080;5.312;2022-12-26T08:57:40;100999.0;;;9.81;100.0
34454;BME280;60061;52.080;5.312;2022-12-26T08:59:16;100994.0;;;9.86;100.0
34454;BME280;60061;52.080;5.312;2022-12-26T09:00:52;101005.0;;;9.85;100.0
34454;BME280;60061;52.080;5.312;2022-12-26T09:04:04;101022.0;;;9.82;100.0
34454;BME280;60061;52.080;5.312;2022-12-26T09:05:41;101024.0;;;9.8;100.0
34454;BME280;60061;52.080;5.312;2022-12-26T09:07:18;101030.0;;;9.74;100.0
34454;BME280;60061;52.080;5.312;2022-12-26T09:08:54;101033.0;;;9.72;100.0
34454;BME280;60061;52.080;5.312;2022-12-26T09:12:06;101038.0;;;9.81;100.0
34454;BME280;60061;52.080;5.312;2022-12-26T09:13:43;101047.0;;;9.91;100.0
34454;BME280;60061;52.080;5.312;2022-12-26T09:15:21;101047.0;;;9.81;100.0
34454;BME280;60061;52.080;5.312;2022-12-26T09:18:33;101049.0;;;9.96;100.0
34454;BME280;60061;52.080;5.312;2022-12-26T09:20:10;101041.0;;;9.86;100.0
34454;BME280;60061;52.080;5.312;2022-12-26T09:21:48;101052.0;;;9.81;100.0
34454;BME280;60061;52.080;5.312;2022-12-26T09:25:01;101072.0;;;9.88;100.0
34454;BME280;60061;52.080;5.312;2022-12-26T09:26:37;101080.0;;;9.69;100.0
34454;BME280;60061;52.080;5.312;2022-12-26T09:28:14;101091.0;;;9.67;100.0
34454;BME280;60061;52.080;5.312;2022-12-26T09:29:52;101096.0;;;9.89;100.0
34454;BME280;60061;52.080;5.312;2022-12-26T09:33:06;101098.0;;;9.98;100.0
34454;BME280;60061;52.080;5.312;2022-12-26T09:34:42;101099.0;;;9.78;100.0
34454;BME280;60061;52.080;5.312;2022-12-26T09:36:20;101105.0;;;9.74;100.0
34454;BME280;60061;52.080;5.312;2022-12-26T09:39:33;101109.0;;;9.75;100.0
34454;BME280;60061;52.080;5.312;2022-12-26T09:41:22;101126.0;;;9.6;100.0
34454;BME280;60061;52.080;5.312;2022-12-26T09:43:16;101124.0;;;9.6;100.0
34454;BME280;60061;52.080;5.312;2022-12-26T09:45:03;101116.0;;;9.72;100.0
34454;BME280;60061;52.080;5.312;2022-12-26T09:46:49;101127.0;;;9.85;100.0
34454;BME280;60061;52.080;5.312;2022-12-26T09:50:25;101134.0;;;9.64;100.0
34454;BME280;60061;52.080;5.312;2022-12-26T09:52:21;101139.0;;;9.72;100.0
34454;BME280;60061;52.080;5.312;2022-12-26T09:53:59;101161.0;;;9.72;100.0
34454;BME280;60061;52.080;5.312;2022-12-26T09:55:45;101174.0;;;9.49;100.0
34454;BME280;60061;52.080;5.312;2022-12-26T09:57:29;101178.0;;;9.35;100.0
34454;BME280;60061;52.080;5.312;2022-12-26T09:59:15;101182.0;;;9.15;100.0
34454;BME280;60061;52.080;5.312;2022-12-26T10:02:41;101193.0;;;9.09;100.0
34454;BME280;60061;52.080;5.312;2022-12-26T10:04:22;101195.0;;;9.1;100.0
34454;BME280;60061;52.080;5.312;2022-12-26T10:06:09;101202.0;;;9.17;100.0
34454;BME280;60061;52.080;5.312;2022-12-26T10:09:43;101206.0;;;9.08;100.0
34454;BME280;60061;52.080;5.312;2022-12-26T10:11:55;101210.0;;;8.92;100.0
34454;BME280;60061;52.080;5.312;2022-12-26T10:15:29;101218.0;;;8.98;100.0
34454;BME280;60061;52.080;5.312;2022-12-26T10:17:19;101222.0;;;9.06;100.0
34454;BME280;60061;52.080;5.312;2022-12-26T10:19:14;101230.0;;;9.06;100.0
34454;BME280;60061;52.080;5.312;2022-12-26T10:21:21;101242.0;;;8.83;100.0
34454;BME280;60061;52.080;5.312;2022-12-26T10:23:17;101246.0;;;8.82;100.0
34454;BME280;60061;52.080;5.312;2022-12-26T10:25:23;101255.0;;;8.73;100.0
34454;BME280;60061;52.080;5.312;2022-12-26T10:27:08;101258.0;;;8.69;100.0
34454;BME280;60061;52.080;5.312;2022-12-26T10:28:51;101261.0;;;8.57;100.0
34454;BME280;60061;52.080;5.312;2022-12-26T10:34:09;101274.0;;;8.27;100.0
34454;BME280;60061;52.080;5.312;2022-12-26T10:35:47;101271.0;;;8.47;100.0
34454;BME280;60061;52.080;5.312;2022-12-26T10:37:26;101271.0;;;8.48;100.0
34454;BME280;60061;52.080;5.312;2022-12-26T10:39:14;101271.0;;;8.39;100.0
34454;BME280;60061;52.080;5.312;2022-12-26T10:40:59;101272.0;;;8.33;100.0
34454;BME280;60061;52.080;5.312;2022-12-26T10:44:17;101273.0;;;8.36;100.0
34454;BME280;60061;52.080;5.312;2022-12-26T10:46:10;101275.0;;;8.34;100.0
34454;BME280;60061;52.080;5.312;2022-12-26T10:49:01;101274.0;;;8.44;100.0
34454;BME280;60061;52.080;5.312;2022-12-26T10:50:40;101278.0;;;8.45;100.0
34454;BME280;60061;52.080;5.312;2022-12-26T10:52:26;101295.0;;;8.2;100.0
34454;BME280;60061;52.080;5.312;2022-12-26T10:54:09;101298.0;;;8.14;100.0
34454;BME280;60061;52.080;5.312;2022-12-26T10:55:48;101297.0;;;8.17;100.0
34454;BME280;60061;52.080;5.312;2022-12-26T10:59:12;101294.0;;;8.15;100.0
34454;BME280;60061;52.080;5.312;2022-12-26T11:00:53;101292.0;;;8.18;100.0
34454;BME280;60061;52.080;5.312;2022-12-26T11:02:30;101302.0;;;8.02;100.0
34454;BME280;60061;52.080;5.312;2022-12-26T11:04:15;101303.0;;;8.23;100.0
34454;BME280;60061;52.080;5.312;2022-12-26T11:07:44;101305.0;;;8.14;100.0
34454;BME280;60061;52.080;5.312;2022-12-26T11:09:33;101298.0;;;8.1;100.0
34454;BME280;60061;52.080;5.312;2022-12-26T11:11:19;101295.0;;;8.14;100.0
34454;BME280;60061;52.080;5.312;2022-12-26T11:12:59;101300.0;;;8.09;100.0
34454;BME280;60061;52.080;5.312;2022-12-26T11:14:38;101315.0;;;8.14;100.0
34454;BME280;60061;52.080;5.312;2022-12-26T11:18:16;101314.0;;;8.26;100.0
34454;BME280;60061;52.080;5.312;2022-12-26T11:20:11;101325.0;;;8.34;100.0
34454;BME280;60061;52.080;5.312;2022-12-26T11:22:19;101333.0;;;8.27;100.0
34454;BME280;60061;52.080;5.312;2022-12-26T11:24:15;101337.0;;;8.17;100.0
34454;BME280;60061;52.080;5.312;2022-12-26T11:25:54;101342.0;;;8.02;100.0
34454;BME280;60061;52.080;5.312;2022-12-26T11:27:30;101340.0;;;8.14;100.0
34454;BME280;60061;52.080;5.312;2022-12-26T11:29:11;101337.0;;;8.11;100.0
34454;BME280;60061;52.080;5.312;2022-12-26T11:32:25;101343.0;;;7.96;100.0
34454;BME280;60061;52.080;5.312;2022-12-26T11:34:06;101342.0;;;8.14;100.0
34454;BME280;60061;52.080;5.312;2022-12-26T11:35:47;101346.0;;;8.15;100.0